sensor_id;sensor_type;location;lat;lon;timestamp;pressure;altitude;pressure_sealevel;temperature;humidity
30338;BME280;17143;51.888;5.408;2022-09-17T00:00:01;101152.00;;;12.66;96.17
30338;BME280;17143;51.888;5.408;2022-09-17T00:15:03;101163.47;;;12.52;97.36
30338;BME280;17143;51.888;5.408;2022-09-17T00:30:07;101170.03;;;12.44;96.88
30338;BME280;17143;51.888;5.408;2022-09-17T00:45:10;101180.75;;;12.33;97.95
30338;BME280;17143;51.888;5.408;2022-09-17T01:00:14;101190.63;;;12.22;98.28
30338;BME280;17143;51.888;5.408;2022-09-17T01:15:23;101193.47;;;12.10;98.10
30338;BME280;17143;51.888;5.408;2022-09-17T01:30:38;101193.56;;;11.96;98.88
30338;BME280;17143;51.888;5.408;2022-09-17T01:45:56;101201.72;;;11.86;99.25
30338;BME280;17143;51.888;5.408;2022-09-17T02:01:04;101219.41;;;11.75;100.00
30338;BME280;17143;51.888;5.408;2022-09-17T02:16:10;101228.78;;;11.72;100.00
30338;BME280;17143;51.888;5.408;2022-09-17T02:31:13;101215.56;;;11.85;100.00
30338;BME280;17143;51.888;5.408;2022-09-17T02:46:27;101223.47;;;11.86;100.00
30338;BME280;17143;51.888;5.408;2022-09-17T03:01:36;101235.94;;;11.76;99.80
30338;BME280;17143;51.888;5.408;2022-09-17T03:16:39;101220.28;;;11.76;100.00
30338;BME280;17143;51.888;5.408;2022-09-17T03:31:41;101239.38;;;11.75;100.00
30338;BME280;17143;51.888;5.408;2022-09-17T03:46:43;101212.72;;;11.80;100.00
30338;BME280;17143;51.888;5.408;2022-09-17T04:01:45;101233.47;;;11.48;100.00
30338;BME280;17143;51.888;5.408;2022-09-17T04:16:47;101253.03;;;11.25;100.00
30338;BME280;17143;51.888;5.408;2022-09-17T04:31:49;101255.59;;;11.09;100.00
30338;BME280;17143;51.888;5.408;2022-09-17T04:46:51;101255.13;;;11.16;100.00
30338;BME280;17143;51.888;5.408;2022-09-17T05:01:53;101258.63;;;11.02;100.00
30338;BME280;17143;51.888;5.408;2022-09-17T05:16:55;101262.28;;;10.91;100.00
30338;BME280;17143;51.888;5.408;2022-09-17T05:31:57;101284.59;;;10.86;100.00
30338;BME280;17143;51.888;5.408;2022-09-17T05:46:59;101298.97;;;10.94;100.00
30338;BME280;17143;51.888;5.408;2022-09-17T06:02:01;101289.63;;;11.41;100.00
30338;BME280;17143;51.888;5.408;2022-09-17T06:17:03;101296.38;;;11.98;98.38
30338;BME280;17143;51.888;5.408;2022-09-17T06:32:06;101300.56;;;12.91;95.01
30338;BME280;17143;51.888;5.408;2022-09-17T06:47:08;101320.63;;;18.04;77.77
30338;BME280;17143;51.888;5.408;2022-09-17T07:02:10;101333.31;;;20.41;68.37
30338;BME280;17143;51.888;5.408;2022-09-17T07:17:12;101323.16;;;21.49;62.06
30338;BME280;17143;51.888;5.408;2022-09-17T07:32:15;101315.72;;;21.28;58.03
30338;BME280;17143;51.888;5.408;2022-09-17T07:47:17;101344.56;;;18.97;65.09
30338;BME280;17143;51.888;5.408;2022-09-17T08:02:19;101331.59;;;22.99;55.49
30338;BME280;17143;51.888;5.408;2022-09-17T08:17:20;101337.09;;;24.06;50.89
30338;BME280;17143;51.888;5.408;2022-09-17T08:32:23;101323.47;;;25.22;48.41
30338;BME280;17143;51.888;5.408;2022-09-17T08:47:27;101340.38;;;23.72;50.16
30338;BME280;17143;51.888;5.408;2022-09-17T09:02:42;101334.63;;;22.00;51.68
30338;BME280;17143;51.888;5.408;2022-09-17T09:17:50;101382.63;;;17.41;66.24
30338;BME280;17143;51.888;5.408;2022-09-17T09:32:58;101382.22;;;20.98;61.76
30338;BME280;17143;51.888;5.408;2022-09-17T09:48:06;101371.56;;;18.87;65.47
30338;BME280;17143;51.888;5.408;2022-09-17T10:03:15;101362.44;;;21.71;58.20
30338;BME280;17143;51.888;5.408;2022-09-17T10:18:20;101358.72;;;22.71;54.77
30338;BME280;17143;51.888;5.408;2022-09-17T10:33:24;101356.78;;;21.53;58.13
30338;BME280;17143;51.888;5.408;2022-09-17T10:48:32;101351.63;;;19.29;66.42
30338;BME280;17143;51.888;5.408;2022-09-17T11:03:50;101331.63;;;21.28;62.24
30338;BME280;17143;51.888;5.408;2022-09-17T11:18:58;101320.44;;;21.47;58.89
30338;BME280;17143;51.888;5.408;2022-09-17T11:34:22;101298.09;;;21.32;57.70
30338;BME280;17143;51.888;5.408;2022-09-17T11:49:33;101299.09;;;20.50;55.56
30338;BME280;17143;51.888;5.408;2022-09-17T12:04:42;101285.03;;;21.42;56.43
30338;BME280;17143;51.888;5.408;2022-09-17T12:19:48;101287.66;;;21.41;44.33
30338;BME280;17143;51.888;5.408;2022-09-17T12:34:56;101298.75;;;20.75;46.87
30338;BME280;17143;51.888;5.408;2022-09-17T12:50:12;101302.13;;;19.90;52.02
30338;BME280;17143;51.888;5.408;2022-09-17T13:21:04;101303.06;;;19.92;51.29
30338;BME280;17143;51.888;5.408;2022-09-17T13:36:37;101286.75;;;20.49;50.34
30338;BME280;17143;51.888;5.408;2022-09-17T13:51:52;101289.84;;;20.70;45.46
30338;BME280;17143;51.888;5.408;2022-09-17T14:06:54;101299.34;;;20.22;45.33
30338;BME280;17143;51.888;5.408;2022-09-17T14:21:59;101293.06;;;21.00;45.14
30338;BME280;17143;51.888;5.408;2022-09-17T14:37:02;101306.56;;;20.68;44.25
30338;BME280;17143;51.888;5.408;2022-09-17T14:52:23;101316.22;;;19.54;50.80
30338;BME280;17143;51.888;5.408;2022-09-17T15:07:26;101328.50;;;18.59;54.53
30338;BME280;17143;51.888;5.408;2022-09-17T15:22:31;101317.16;;;18.62;55.99
30338;BME280;17143;51.888;5.408;2022-09-17T15:37:41;101322.53;;;18.65;55.57
30338;BME280;17143;51.888;5.408;2022-09-17T15:52:44;101316.84;;;18.23;51.22
30338;BME280;17143;51.888;5.408;2022-09-17T16:07:46;101320.13;;;18.16;53.16
30338;BME280;17143;51.888;5.408;2022-09-17T16:22:49;101320.75;;;17.81;51.75
30338;BME280;17143;51.888;5.408;2022-09-17T16:37:53;101345.84;;;17.44;53.03
30338;BME280;17143;51.888;5.408;2022-09-17T16:52:55;101362.91;;;17.30;54.34
30338;BME280;17143;51.888;5.408;2022-09-17T17:07:57;101396.16;;;16.36;67.54
30338;BME280;17143;51.888;5.408;2022-09-17T17:23:00;101402.00;;;15.66;74.96
30338;BME280;17143;51.888;5.408;2022-09-17T17:38:02;101407.06;;;15.42;78.92
30338;BME280;17143;51.888;5.408;2022-09-17T17:53:04;101397.69;;;15.28;80.72
30338;BME280;17143;51.888;5.408;2022-09-17T18:08:06;101405.94;;;14.97;81.79
30338;BME280;17143;51.888;5.408;2022-09-17T18:23:08;101435.97;;;14.85;84.72
30338;BME280;17143;51.888;5.408;2022-09-17T18:38:10;101426.34;;;14.66;85.35
30338;BME280;17143;51.888;5.408;2022-09-17T18:53:12;101441.09;;;14.64;87.21
30338;BME280;17143;51.888;5.408;2022-09-17T19:08:14;101434.06;;;14.28;87.60
30338;BME280;17143;51.888;5.408;2022-09-17T19:23:21;101444.69;;;13.95;89.44
30338;BME280;17143;51.888;5.408;2022-09-17T19:38:25;101440.31;;;13.78;90.68
30338;BME280;17143;51.888;5.408;2022-09-17T19:53:27;101440.31;;;13.61;92.16
30338;BME280;17143;51.888;5.408;2022-09-17T20:08:29;101440.72;;;13.52;92.61
30338;BME280;17143;51.888;5.408;2022-09-17T20:23:31;101457.91;;;13.47;95.44
30338;BME280;17143;51.888;5.408;2022-09-17T20:38:34;101443.53;;;13.39;96.03
30338;BME280;17143;51.888;5.408;2022-09-17T20:53:36;101446.16;;;13.23;97.89
30338;BME280;17143;51.888;5.408;2022-09-17T21:08:38;101450.66;;;13.25;96.99
30338;BME280;17143;51.888;5.408;2022-09-17T21:23:41;101451.72;;;13.29;98.45
30338;BME280;17143;51.888;5.408;2022-09-17T21:38:43;101468.06;;;13.25;99.75
30338;BME280;17143;51.888;5.408;2022-09-17T21:53:49;101466.91;;;13.20;100.00
30338;BME280;17143;51.888;5.408;2022-09-17T22:08:51;101488.66;;;13.19;100.00
30338;BME280;17143;51.888;5.408;2022-09-17T22:23:55;101447.63;;;13.18;100.00
30338;BME280;17143;51.888;5.408;2022-09-17T22:38:57;101443.72;;;13.10;100.00
30338;BME280;17143;51.888;5.408;2022-09-17T22:54:00;101439.22;;;13.07;100.00
30338;BME280;17143;51.888;5.408;2022-09-17T23:09:02;101438.59;;;12.97;100.00
30338;BME280;17143;51.888;5.408;2022-09-17T23:24:04;101444.81;;;12.99;100.00
30338;BME280;17143;51.888;5.408;2022-09-17T23:39:07;101440.22;;;12.95;100.00
30338;BME280;17143;51.888;5.408;2022-09-17T23:54:09;101414.72;;;12.91;100.00
